TimeCST,TemperatureF,Dew PointF,Humidity,Sea Level PressureIn,VisibilityMPH,Wind Direction,Wind SpeedMPH,Gust SpeedMPH,PrecipitationIn,Events,Conditions,WindDirDegrees,DateUTC
12:00 AM,70,64,75,29.86,12,East,5.8,,,,Scattered Clouds,90,2013-06-28 06:00:00
12:00 AM,69.8,64.4,83,30.04,6.2,East,5.8,-,N/A,,Mostly Cloudy,90,2013-06-28 06:00:00
1:00 AM,68.0,62.6,83,30.02,-9999.0,East,4.6,-,N/A,,Clear,90,2013-06-28 07:00:00
2:00 AM,68.0,62.6,83,30.01,-9999.0,NE,8.1,-,N/A,,Clear,50,2013-06-28 08:00:00
3:00 AM,70,62,70,29.83,12,ESE,5.8,,,,Partly Cloudy,110,2013-06-28 09:00:00
3:00 AM,69.8,62.6,78,30.00,-9999.0,ESE,5.8,-,N/A,,Clear,110,2013-06-28 09:00:00
4:00 AM,69.8,60.8,73,29.97,-9999.0,ENE,10.4,-,N/A,,Clear,60,2013-06-28 10:00:00
5:00 AM,69.8,60.8,73,29.96,-9999.0,ENE,19.6,-,N/A,,Clear,60,2013-06-28 11:00:00
6:00 AM,71,60,59,29.81,12,ESE,12.7,,,,Scattered Clouds,120,2013-06-28 12:00:00
6:00 AM,69.8,59.0,68,29.97,6.2,ESE,12.7,-,N/A,,Mostly Cloudy,120,2013-06-28 12:00:00
7:00 AM,71.6,60.8,69,29.99,-9999.0,East,9.2,-,N/A,,Clear,80,2013-06-28 13:00:00
8:00 AM,73.4,60.8,65,30.01,-9999.0,ESE,5.8,-,N/A,,Clear,120,2013-06-28 14:00:00
9:00 AM,76,62,52,29.86,12,ESE,8.1,,,,Clear,110,2013-06-28 15:00:00
9:00 AM,77.0,60.8,57,30.03,-9999.0,ESE,8.1,-,N/A,,Clear,110,2013-06-28 15:00:00
10:00 AM,80.6,62.6,54,30.03,6.2,ESE,9.2,-,N/A,,Mostly Cloudy,120,2013-06-28 16:00:00
11:00 AM,77.0,66.2,69,30.02,6.2,SE,5.8,-,N/A,,Mostly Cloudy,130,2013-06-28 17:00:00
12:00 PM,78.8,66.2,65,30.00,6.2,West,5.8,-,N/A,,Mostly Cloudy,260,2013-06-28 18:00:00
1:00 PM,75.2,68.0,78,30.00,6.2,WSW,6.9,-,N/A,,Mostly Cloudy,240,2013-06-28 19:00:00
2:00 PM,77.0,68.0,74,29.98,6.2,WSW,6.9,-,N/A,,Mostly Cloudy,250,2013-06-28 20:00:00
3:00 PM,76,68,69,29.83,12,WSW,8.1,,,,Overcast,250,2013-06-28 21:00:00
3:00 PM,77.0,68.0,74,29.97,6.2,WSW,8.1,-,N/A,,Mostly Cloudy,250,2013-06-28 21:00:00
4:00 PM,73.4,66.2,78,29.98,6.2,SW,9.2,-,N/A,,Mostly Cloudy,220,2013-06-28 22:00:00
5:00 PM,71.6,66.2,83,30.00,6.2,West,6.9,-,N/A,,Mostly Cloudy,260,2013-06-28 23:00:00
5:34 PM,68.0,64.4,88,30.02,6.2,West,9.2,-,N/A,Fog,Mostly Cloudy,270,2013-06-28 23:34:00
6:00 PM,68,64,82,29.91,9,West,8.1,,,Fog,Light Fog,280,2013-06-29 00:00:00
6:00 PM,68.0,64.4,88,30.04,6.2,West,8.1,-,N/A,Fog,Mostly Cloudy,280,2013-06-29 00:00:00
7:00 PM,68.0,64.4,88,30.05,6.2,West,6.9,-,N/A,Fog,Mostly Cloudy,270,2013-06-29 01:00:00
8:00 PM,68.0,62.6,83,30.06,6.2,NNW,4.6,-,N/A,,Mostly Cloudy,340,2013-06-29 02:00:00
9:00 PM,67,64,87,29.90,12,SSE,2.3,,,,Scattered Clouds,150,2013-06-29 03:00:00
9:00 PM,68.0,64.4,88,30.06,6.2,SSE,2.3,-,N/A,,Scattered Clouds,150,2013-06-29 03:00:00
10:00 PM,66.2,64.4,94,30.06,-9999.0,Calm,Calm,-,N/A,,Clear,0,2013-06-29 04:00:00
11:00 PM,66.2,62.6,88,30.05,-9999.0,NNE,3.5,-,N/A,,Clear,30,2013-06-29 05:00:00